Time;durP1;ratioP1;P1;durP2;ratioP2;P2;SDS_P1;SDS_P2;PMS_P1;PMS_P2;Temp;Humidity;BMP_temperature;BMP_pressure;BME280_temperature;BME280_humidity;BME280_pressure;Samples;Min_cycle;Max_cycle;Signal;HPM_P1;HPM_P2
2022/01/21 00:00:36;;;;;;;32.97;10.52;;;;;;;0.05;89.03;100791.94;5013125;28;20800;-59
2022/01/21 00:03:01;;;;;;;21.45;8.60;;;;;;;0.11;89.16;100792.25;4998523;28;20423;-60
2022/01/21 00:05:27;;;;;;;29.58;9.60;;;;;;;0.11;88.50;100786.97;4992809;28;20601;-60
2022/01/21 00:07:52;;;;;;;22.38;9.63;;;;;;;0.22;89.39;100780.72;4988620;28;20045;-60
2022/01/21 00:10:17;;;;;;;23.52;9.40;;;;;;;0.29;89.08;100783.66;4987515;28;20054;-59
2022/01/21 00:12:43;;;;;;;26.73;8.52;;;;;;;0.25;88.55;100783.13;4996034;28;20041;-60
2022/01/21 00:15:10;;;;;;;32.17;10.85;;;;;;;0.25;90.37;100780.47;4989191;28;20534;-59
2022/01/21 00:17:36;;;;;;;32.00;8.88;;;;;;;0.27;90.35;100793.50;4993024;28;20101;-59
2022/01/21 00:30:58;;;;;;;23.27;8.98;;;;;;;0.31;88.26;100813.38;4989070;28;20088;-59
2022/01/21 00:33:23;;;;;;;18.15;7.05;;;;;;;0.25;88.61;100821.81;4996869;28;20034;-59
2022/01/21 00:35:48;;;;;;;22.48;7.43;;;;;;;0.25;88.35;100813.91;4989928;28;20046;-59
2022/01/21 00:38:14;;;;;;;30.15;6.55;;;;;;;0.29;88.14;100820.59;4995089;28;20040;-59
2022/01/21 00:40:40;;;;;;;25.10;7.93;;;;;;;0.26;87.74;100820.88;4987230;28;20050;-59
2022/01/21 00:43:28;;;;;;;24.67;7.60;;;;;;;0.26;87.91;100831.41;4989875;28;20058;-60
2022/01/21 00:45:54;;;;;;;27.98;7.00;;;;;;;0.28;87.80;100826.84;4987097;28;20132;-61
2022/01/21 00:48:19;;;;;;;20.65;6.07;;;;;;;0.26;88.26;100824.34;4992591;28;20034;-59
2022/01/21 00:50:47;;;;;;;24.08;5.75;;;;;;;0.15;88.02;100825.28;4994040;28;20628;-59
2022/01/21 00:53:13;;;;;;;23.48;7.32;;;;;;;0.20;87.46;100833.63;4989860;28;21311;-60
2022/01/21 00:55:38;;;;;;;22.10;6.68;;;;;;;0.22;87.15;100836.13;4990292;28;20039;-59
2022/01/21 00:58:03;;;;;;;23.55;6.55;;;;;;;0.18;87.60;100829.47;4988938;28;20496;-59
2022/01/21 01:00:29;;;;;;;19.10;6.93;;;;;;;0.15;87.95;100825.28;4990575;28;20077;-60
2022/01/21 01:02:54;;;;;;;28.10;7.82;;;;;;;0.08;87.99;100832.06;4976068;28;20039;-59
2022/01/21 01:05:20;;;;;;;21.73;6.55;;;;;;;0.03;88.01;100831.66;4992031;28;20053;-61
2022/01/21 01:07:45;;;;;;;16.83;6.70;;;;;;;-0.02;88.53;100837.31;4990779;28;20022;-60
2022/01/21 01:10:17;;;;;;;26.00;8.05;;;;;;;0.02;89.70;100835.22;4991276;28;20095;-60
2022/01/21 01:19:51;;;;;;;18.83;6.13;;;;;;;0.02;88.53;100840.50;4987138;28;20032;-60
2022/01/21 01:21:08;;;;;;;18.88;5.90;;;;;;;0.13;88.56;100858.88;4987425;28;20050;-59
2022/01/21 01:24:00;;;;;;;29.77;6.45;;;;;;;0.22;89.06;100862.47;4991272;28;20026;-59
2022/01/21 01:29:08;;;;;;;23.58;6.43;;;;;;;0.10;89.62;100853.00;5000534;28;20128;-59
2022/01/21 01:31:33;;;;;;;23.83;6.15;;;;;;;0.09;89.65;100846.91;4989889;28;20042;-59
2022/01/21 01:34:01;;;;;;;23.92;6.38;;;;;;;0.09;89.94;100851.34;4992441;28;20038;-59
2022/01/21 01:36:26;;;;;;;17.02;5.13;;;;;;;0.09;90.21;100848.72;4982659;28;20046;-59
2022/01/21 01:39:05;;;;;;;22.83;6.50;;;;;;;0.14;90.56;100843.88;4976783;28;20727;-59
2022/01/21 01:41:45;;;;;;;25.83;6.53;;;;;;;0.08;91.14;100847.91;4990275;28;20046;-59
2022/01/21 01:49:38;;;;;;;24.20;6.95;;;;;;;0.15;93.05;100849.03;4988944;28;20710;-61
2022/01/21 01:52:09;;;;;;;22.05;7.03;;;;;;;0.12;91.78;100849.28;4983507;28;20058;-59
2022/01/21 01:54:36;;;;;;;19.40;7.28;;;;;;;0.13;92.07;100843.06;4991262;28;20605;-59
2022/01/21 01:57:01;;;;;;;26.02;7.18;;;;;;;0.10;91.70;100842.47;4987574;28;20045;-61
2022/01/21 01:59:27;;;;;;;28.15;8.35;;;;;;;0.11;92.32;100839.72;4987330;28;20033;-61
2022/01/21 02:02:12;;;;;;;28.88;8.70;;;;;;;0.14;92.15;100843.88;4989729;28;20108;-59
2022/01/21 02:04:38;;;;;;;32.50;8.93;;;;;;;0.06;92.23;100847.19;4981827;28;20038;-60
2022/01/21 02:07:04;;;;;;;24.88;8.55;;;;;;;0.12;91.66;100846.63;4987763;28;20429;-59
2022/01/21 02:09:29;;;;;;;20.45;8.18;;;;;;;0.16;91.33;100853.31;4983181;28;20460;-60
2022/01/21 02:11:55;;;;;;;30.55;8.13;;;;;;;0.08;91.25;100852.34;4989134;28;20500;-60
2022/01/21 02:14:25;;;;;;;27.33;7.97;;;;;;;0.15;91.18;100851.66;4984226;28;20471;-60
2022/01/21 02:22:14;;;;;;;38.75;10.77;;;;;;;0.17;91.15;100848.88;4966081;28;20102;-60
2022/01/21 02:24:49;;;;;;;31.08;10.15;;;;;;;0.17;91.36;100854.97;4949991;28;20085;-59
2022/01/21 02:27:15;;;;;;;36.40;8.73;;;;;;;0.08;91.18;100854.97;4990067;28;20056;-60
2022/01/21 02:29:47;;;;;;;32.15;10.48;;;;;;;0.11;91.83;100850.25;4992551;28;20030;-59
2022/01/21 02:32:12;;;;;;;29.08;9.02;;;;;;;0.08;91.71;100854.97;4984251;28;20405;-60
2022/01/21 02:34:38;;;;;;;33.58;10.63;;;;;;;0.06;91.54;100841.09;4994025;28;20520;-60
2022/01/21 02:37:04;;;;;;;48.83;10.85;;;;;;;0.21;91.63;100845.00;4987807;28;20050;-62
2022/01/21 02:39:29;;;;;;;23.20;9.48;;;;;;;0.06;91.69;100834.00;4984328;28;20054;-60
2022/01/21 02:41:55;;;;;;;32.63;10.13;;;;;;;0.17;92.34;100831.25;4988980;28;20046;-60
2022/01/21 02:44:20;;;;;;;39.80;10.68;;;;;;;0.19;93.08;100829.31;4995567;28;20030;-59
2022/01/21 02:46:47;;;;;;;22.42;9.95;;;;;;;0.12;92.86;100835.25;4993238;28;20548;-60
2022/01/21 02:49:12;;;;;;;28.70;10.55;;;;;;;0.08;93.19;100842.63;4988882;28;20033;-60
2022/01/21 02:51:38;;;;;;;32.25;8.88;;;;;;;0.10;92.20;100837.19;4985909;28;20137;-59
2022/01/21 02:54:04;;;;;;;35.63;9.48;;;;;;;0.15;92.09;100837.63;4994805;28;20041;-59
2022/01/21 02:56:30;;;;;;;24.65;8.27;;;;;;;0.15;91.47;100841.13;4990426;28;20050;-59
2022/01/21 02:58:55;;;;;;;25.38;9.82;;;;;;;-0.02;92.23;100836.50;4988877;28;20060;-60
2022/01/21 03:01:21;;;;;;;23.10;7.00;;;;;;;0.07;91.65;100838.28;4979262;28;20054;-59
2022/01/21 03:03:47;;;;;;;21.65;8.48;;;;;;;-0.02;91.77;100828.59;4972123;28;20034;-60
2022/01/21 03:06:15;;;;;;;34.75;9.95;;;;;;;-0.16;91.89;100826.31;4980103;28;20054;-60
2022/01/21 03:08:42;;;;;;;31.10;10.52;;;;;;;-0.01;92.95;100841.63;4983724;28;20039;-60
2022/01/21 03:11:08;;;;;;;24.08;9.45;;;;;;;0.02;92.81;100844.94;4994413;28;20049;-59
2022/01/21 03:13:34;;;;;;;24.00;9.35;;;;;;;-0.07;92.87;100849.25;4998167;28;20843;-60
2022/01/21 03:15:59;;;;;;;20.40;8.65;;;;;;;-0.08;93.00;100850.19;4981758;28;20046;-60
2022/01/21 03:18:25;;;;;;;28.48;10.98;;;;;;;-0.04;93.21;100852.44;4989278;28;20379;-60
2022/01/21 03:20:50;;;;;;;33.22;8.95;;;;;;;-0.05;92.70;100852.56;4988058;28;20073;-59
2022/01/21 03:23:18;;;;;;;36.72;11.45;;;;;;;0.01;93.32;100849.41;4995618;28;20030;-59
2022/01/21 03:25:44;;;;;;;31.30;10.63;;;;;;;0.12;92.97;100851.91;4983415;28;20566;-59
2022/01/21 03:28:11;;;;;;;31.13;10.07;;;;;;;0.12;92.50;100856.34;4985625;28;20053;-60
2022/01/21 03:30:36;;;;;;;38.33;9.13;;;;;;;0.07;92.95;100859.38;4983645;28;20145;-59
2022/01/21 03:33:02;;;;;;;31.58;9.60;;;;;;;0.10;92.83;100858.28;4989449;28;20034;-59
2022/01/21 03:35:27;;;;;;;33.95;8.93;;;;;;;0.11;92.46;100855.53;4983612;28;20053;-59
2022/01/21 03:37:52;;;;;;;38.78;9.90;;;;;;;0.14;92.96;100868.44;4975386;28;20041;-59
2022/01/21 03:40:18;;;;;;;33.40;8.45;;;;;;;0.13;92.17;100858.88;4986142;28;20042;-59
2022/01/21 03:42:43;;;;;;;34.20;7.95;;;;;;;0.08;91.96;100871.63;4986409;28;20758;-59
2022/01/21 03:45:11;;;;;;;30.08;7.90;;;;;;;0.14;91.94;100857.06;4984442;28;20034;-59
2022/01/21 03:47:37;;;;;;;31.92;8.82;;;;;;;0.09;92.04;100864.53;4983186;28;20069;-59
2022/01/21 03:50:19;;;;;;;25.55;8.30;;;;;;;0.14;92.41;100873.72;4984864;28;20025;-60
2022/01/21 03:52:45;;;;;;;33.00;9.98;;;;;;;0.14;92.32;100875.50;4992145;28;20097;-59
2022/01/21 03:55:10;;;;;;;28.25;8.85;;;;;;;0.10;92.84;100874.97;4984962;28;20483;-59
2022/01/21 03:57:36;;;;;;;25.92;8.98;;;;;;;0.14;92.56;100884.25;4984184;28;20530;-59
2022/01/21 04:00:05;;;;;;;43.55;11.43;;;;;;;0.14;91.98;100883.44;4981310;28;20090;-60
2022/01/21 04:02:30;;;;;;;23.38;7.97;;;;;;;0.07;91.06;100888.41;4985982;28;20118;-59
2022/01/21 04:04:55;;;;;;;33.92;8.95;;;;;;;0.17;92.17;100883.16;4986290;28;20038;-59
2022/01/21 04:07:21;;;;;;;28.58;8.23;;;;;;;0.19;92.56;100875.94;4992316;28;20034;-59
2022/01/21 04:09:47;;;;;;;27.02;9.35;;;;;;;0.16;91.18;100879.69;4984554;28;20270;-59
2022/01/21 04:12:12;;;;;;;40.13;9.07;;;;;;;0.18;92.00;100882.19;4994924;28;20035;-59
2022/01/21 04:14:38;;;;;;;36.30;9.02;;;;;;;0.17;91.61;100876.06;4991251;28;20037;-59
2022/01/21 04:17:04;;;;;;;29.27;9.27;;;;;;;0.16;91.47;100884.97;4984209;28;20034;-59
2022/01/21 04:19:29;;;;;;;38.63;8.80;;;;;;;0.10;91.25;100885.50;4989796;28;20133;-60
2022/01/21 04:21:55;;;;;;;21.95;6.75;;;;;;;0.17;91.75;100876.06;5006720;28;20048;-59
2022/01/21 04:24:20;;;;;;;27.38;7.72;;;;;;;0.15;91.75;100883.31;4986172;28;20030;-59
2022/01/21 04:26:45;;;;;;;27.75;8.80;;;;;;;0.21;92.42;100880.13;4996726;28;20057;-59
2022/01/21 04:29:11;;;;;;;33.58;8.27;;;;;;;0.16;92.01;100890.22;4992710;28;20451;-60
2022/01/21 04:31:36;;;;;;;30.52;8.82;;;;;;;0.23;93.14;100879.16;4990013;28;20038;-60
2022/01/21 04:34:02;;;;;;;37.60;7.93;;;;;;;0.24;93.65;100875.53;4991499;28;20034;-62
2022/01/21 04:36:27;;;;;;;23.55;7.00;;;;;;;0.36;92.88;100879.75;4985532;28;20507;-60
2022/01/21 04:38:55;;;;;;;19.30;6.78;;;;;;;0.16;92.25;100884.97;4989767;28;20590;-59
2022/01/21 04:49:32;;;;;;;24.90;7.63;;;;;;;-0.02;94.39;100876.88;4969031;28;20041;-60
2022/01/21 04:52:04;;;;;;;29.20;8.32;;;;;;;0.05;95.12;100879.81;4985068;28;20050;-59
2022/01/21 04:54:30;;;;;;;26.33;9.10;;;;;;;0.09;94.91;100888.28;4992753;28;20033;-59
2022/01/21 04:56:56;;;;;;;40.17;10.65;;;;;;;0.06;94.82;100892.00;4989124;28;20034;-59
2022/01/21 04:59:21;;;;;;;26.63;10.32;;;;;;;0.04;94.63;100895.75;4987982;28;20319;-59
2022/01/21 05:01:47;;;;;;;28.63;10.38;;;;;;;0.03;95.39;100908.09;4967597;28;20042;-59
2022/01/21 05:04:12;;;;;;;35.58;10.82;;;;;;;0.07;95.64;100906.84;4987936;28;20042;-59
2022/01/21 05:06:37;;;;;;;26.45;10.60;;;;;;;0.05;95.09;100908.81;4989290;28;20046;-59
2022/01/21 05:09:04;;;;;;;24.98;11.02;;;;;;;0.01;94.45;100912.66;4991857;28;20033;-60
2022/01/21 05:11:35;;;;;;;34.95;12.98;;;;;;;0.16;96.57;100906.06;4994458;28;20152;-60
2022/01/21 05:14:13;;;;;;;38.25;12.55;;;;;;;0.20;95.71;100901.34;4987215;28;20054;-60
2022/01/21 05:16:44;;;;;;;35.03;11.45;;;;;;;0.04;95.11;100907.13;4990676;28;20082;-60
2022/01/21 05:19:15;;;;;;;39.90;12.05;;;;;;;-0.02;95.42;100905.84;4986290;28;20030;-60
2022/01/21 05:21:41;;;;;;;40.75;13.38;;;;;;;0.05;95.22;100916.72;4989525;28;20043;-60
2022/01/21 05:24:06;;;;;;;40.85;13.52;;;;;;;0.07;95.45;100914.75;4985651;28;20376;-60
2022/01/21 05:26:37;;;;;;;40.65;13.07;;;;;;;0.01;95.06;100910.03;4990389;28;20131;-60
2022/01/21 05:29:06;;;;;;;41.58;12.05;;;;;;;0.07;95.19;100920.03;4989869;28;20143;-59
2022/01/21 05:31:31;;;;;;;26.50;11.32;;;;;;;0.05;94.91;100919.34;4985823;28;20325;-59
2022/01/21 05:33:57;;;;;;;38.55;13.38;;;;;;;0.10;95.12;100917.16;4991697;28;20045;-60
2022/01/21 05:36:22;;;;;;;39.33;14.85;;;;;;;0.13;94.84;100922.16;4980439;28;20046;-60
2022/01/21 05:38:48;;;;;;;42.95;12.95;;;;;;;0.01;94.63;100920.56;4992499;28;20041;-59
2022/01/21 05:41:14;;;;;;;34.83;14.70;;;;;;;0.07;94.80;100906.84;4989581;28;20209;-61
2022/01/21 05:43:45;;;;;;;37.72;13.38;;;;;;;0.19;96.42;100900.50;4986842;28;20030;-62
2022/01/21 05:46:33;;;;;;;42.45;13.30;;;;;;;0.13;95.35;100908.13;4984765;28;20052;-59
2022/01/21 05:48:59;;;;;;;37.85;13.10;;;;;;;0.11;94.45;100900.34;4986223;28;20026;-59
2022/01/21 05:51:24;;;;;;;32.25;10.23;;;;;;;0.17;94.09;100899.81;4983441;28;20069;-59
2022/01/21 05:53:50;;;;;;;31.20;10.63;;;;;;;0.12;94.07;100899.38;4993319;28;20049;-60
2022/01/21 05:56:15;;;;;;;30.75;9.95;;;;;;;0.25;93.86;100908.84;4988786;28;20042;-60
2022/01/21 05:58:41;;;;;;;27.83;8.45;;;;;;;0.17;93.63;100910.34;4990297;28;20026;-60
2022/01/21 06:01:06;;;;;;;20.20;8.45;;;;;;;0.10;94.04;100911.88;4987235;28;20045;-60
2022/01/21 06:03:32;;;;;;;32.17;8.80;;;;;;;0.19;94.13;100916.34;4991423;28;20049;-60
2022/01/21 06:05:57;;;;;;;25.75;8.20;;;;;;;0.24;94.15;100909.84;4981274;28;20065;-60
2022/01/21 06:08:23;;;;;;;28.75;8.43;;;;;;;0.29;93.28;100920.81;4982107;28;20034;-60
2022/01/21 06:10:48;;;;;;;30.23;8.80;;;;;;;0.28;93.46;100919.97;4977914;28;20124;-60
2022/01/21 06:13:16;;;;;;;31.63;8.13;;;;;;;0.25;92.66;100912.34;4988882;28;20034;-60
2022/01/21 06:15:42;;;;;;;31.90;7.65;;;;;;;0.30;92.95;100918.06;4984733;28;20049;-59
2022/01/21 06:18:07;;;;;;;28.20;7.22;;;;;;;0.34;93.79;100918.59;4985729;28;20034;-59
2022/01/21 06:20:33;;;;;;;27.90;6.60;;;;;;;0.37;93.31;100918.31;4987376;28;20053;-60
2022/01/21 06:22:59;;;;;;;32.53;7.18;;;;;;;0.39;92.95;100919.03;4984714;28;20035;-60
2022/01/21 06:25:24;;;;;;;24.60;7.10;;;;;;;0.42;92.78;100910.84;4985001;28;20858;-60
2022/01/21 06:27:50;;;;;;;31.85;6.82;;;;;;;0.42;92.61;100914.34;4980480;28;20096;-60
2022/01/21 06:30:16;;;;;;;24.13;7.50;;;;;;;0.42;92.76;100913.47;4988625;28;20104;-60
2022/01/21 06:32:41;;;;;;;23.40;7.20;;;;;;;0.40;93.08;100918.06;4966612;28;20027;-60
2022/01/21 06:35:08;;;;;;;21.40;7.60;;;;;;;0.41;94.30;100930.28;4973062;28;20038;-60
2022/01/21 06:37:34;;;;;;;21.42;7.65;;;;;;;0.40;93.66;100928.59;4988463;28;20073;-60
2022/01/21 06:39:59;;;;;;;23.20;7.05;;;;;;;0.42;93.22;100931.94;4990958;28;20076;-60
2022/01/21 06:42:26;;;;;;;29.55;7.25;;;;;;;0.47;93.10;100931.53;4986439;28;20054;-60
2022/01/21 06:44:52;;;;;;;23.80;6.07;;;;;;;0.39;92.34;100926.94;4986077;28;20053;-60
2022/01/21 06:47:18;;;;;;;23.75;7.00;;;;;;;0.44;93.14;100930.00;4986625;28;20451;-60
2022/01/21 06:49:44;;;;;;;24.58;7.00;;;;;;;0.35;93.00;100928.16;4979573;28;20030;-60
2022/01/21 06:52:11;;;;;;;23.40;6.50;;;;;;;0.46;92.93;100938.63;4988377;28;20201;-60
2022/01/21 06:54:37;;;;;;;25.52;6.47;;;;;;;0.46;92.24;100933.34;4989060;28;20030;-60
2022/01/21 06:57:02;;;;;;;34.05;6.82;;;;;;;0.41;91.75;100931.13;5001927;28;20080;-60
2022/01/21 06:59:28;;;;;;;24.13;6.20;;;;;;;0.46;93.56;100938.63;4986822;28;20038;-60
2022/01/21 07:01:53;;;;;;;22.35;7.05;;;;;;;0.41;92.70;100940.84;4984265;28;20042;-60
2022/01/21 07:04:19;;;;;;;30.40;6.80;;;;;;;0.45;93.33;100936.13;4984457;28;20034;-60
2022/01/21 07:06:44;;;;;;;22.73;6.60;;;;;;;0.40;92.88;100931.25;4988687;28;20046;-61
2022/01/21 07:09:11;;;;;;;21.73;6.22;;;;;;;0.41;92.32;100932.94;5009196;28;20049;-60
2022/01/21 07:11:36;;;;;;;21.10;7.05;;;;;;;0.37;92.00;100947.34;5009841;28;20050;-59
2022/01/21 07:14:02;;;;;;;20.05;6.40;;;;;;;0.47;92.34;100952.66;4989741;28;20578;-59
2022/01/21 07:16:27;;;;;;;18.77;6.22;;;;;;;0.54;93.73;100957.25;4986808;28;20396;-60
2022/01/21 07:18:52;;;;;;;21.23;5.97;;;;;;;0.48;92.75;100962.25;4992013;28;20492;-60
2022/01/21 07:21:18;;;;;;;25.05;6.75;;;;;;;0.48;92.51;100963.09;4988674;28;20039;-60
2022/01/21 07:23:43;;;;;;;21.10;7.22;;;;;;;0.41;92.13;100962.78;4984758;28;20038;-59
2022/01/21 07:26:09;;;;;;;29.60;7.55;;;;;;;0.43;92.50;100963.47;5002204;28;20050;-59
2022/01/21 07:28:34;;;;;;;23.45;7.13;;;;;;;0.48;92.87;100963.09;4983795;28;20590;-60
2022/01/21 07:31:00;;;;;;;18.45;6.97;;;;;;;0.51;93.60;100968.09;4983055;28;20313;-60
2022/01/21 07:33:25;;;;;;;22.60;7.60;;;;;;;0.68;94.24;100968.41;4978637;28;20050;-59
2022/01/21 07:35:51;;;;;;;24.85;8.48;;;;;;;0.64;93.55;100967.84;4972065;28;20464;-60
2022/01/21 07:38:16;;;;;;;28.95;7.00;;;;;;;0.59;92.80;100970.88;4981349;28;20452;-62
2022/01/21 07:40:42;;;;;;;26.65;7.68;;;;;;;0.61;92.64;100976.03;4991382;28;20057;-60
2022/01/21 07:43:08;;;;;;;20.05;7.90;;;;;;;0.60;93.24;100972.56;4996477;28;20482;-59
2022/01/21 07:45:33;;;;;;;22.50;7.28;;;;;;;0.59;92.23;100983.25;4993334;28;20062;-60
2022/01/21 07:47:59;;;;;;;23.30;6.82;;;;;;;0.59;92.08;100976.16;4993402;28;20118;-61
2022/01/21 07:50:24;;;;;;;25.40;6.53;;;;;;;0.70;92.08;100982.28;5003700;28;20572;-61
2022/01/21 07:52:50;;;;;;;27.40;6.28;;;;;;;0.66;91.60;100976.44;4995801;28;20030;-61
2022/01/21 07:55:15;;;;;;;21.20;5.88;;;;;;;0.75;91.55;100974.78;4987831;28;20105;-61
2022/01/21 07:57:41;;;;;;;17.95;5.88;;;;;;;0.74;91.56;100971.31;4992258;28;20534;-60
2022/01/21 08:00:06;;;;;;;20.60;6.35;;;;;;;0.70;91.25;100974.38;4993825;28;20033;-60
2022/01/21 08:02:33;;;;;;;18.38;5.80;;;;;;;0.68;91.84;100979.81;5005312;28;20037;-62
2022/01/21 08:05:01;;;;;;;31.90;8.02;;;;;;;0.72;91.78;100988.25;4985945;28;20026;-60
2022/01/21 08:07:27;;;;;;;21.27;5.93;;;;;;;0.85;91.97;100986.22;4995604;28;20041;-59
2022/01/21 08:09:53;;;;;;;21.33;5.88;;;;;;;0.77;91.18;100986.06;4996443;28;20041;-61
2022/01/21 08:12:19;;;;;;;19.25;5.97;;;;;;;0.83;92.16;100986.34;4994176;28;20136;-60
2022/01/21 08:14:47;;;;;;;25.52;6.20;;;;;;;0.82;92.48;100970.63;4999351;28;20455;-60
2022/01/21 08:17:13;;;;;;;28.13;6.65;;;;;;;0.80;92.95;100968.16;4994028;28;20088;-60
2022/01/21 08:19:39;;;;;;;26.67;6.15;;;;;;;0.87;93.47;100992.19;4996346;28;20034;-60
2022/01/21 08:22:04;;;;;;;14.00;6.03;;;;;;;0.68;93.92;100997.44;4994839;28;20049;-60
2022/01/21 08:24:30;;;;;;;18.13;5.75;;;;;;;0.80;95.77;100998.97;4985278;28;20034;-60
2022/01/21 08:26:55;;;;;;;16.83;5.70;;;;;;;0.61;95.71;101007.69;4983862;28;20511;-59
2022/01/21 08:29:21;;;;;;;18.65;5.60;;;;;;;0.57;95.73;101022.09;5005545;28;20038;-60
2022/01/21 08:31:46;;;;;;;18.95;5.85;;;;;;;0.66;95.69;101018.69;4991000;28;20046;-61
2022/01/21 08:34:13;;;;;;;18.60;5.60;;;;;;;0.57;96.46;101006.28;4987487;28;20034;-62
2022/01/21 08:36:38;;;;;;;15.95;6.22;;;;;;;0.75;97.20;101009.97;5003897;28;20136;-61
2022/01/21 08:39:04;;;;;;;21.80;6.38;;;;;;;0.75;96.09;100996.75;4988952;28;20121;-60
2022/01/21 08:41:30;;;;;;;18.05;6.10;;;;;;;0.58;96.91;101000.88;4996601;28;20627;-62
2022/01/21 08:43:55;;;;;;;30.05;7.55;;;;;;;0.59;97.57;100988.50;4986642;28;20096;-59
2022/01/21 08:46:21;;;;;;;16.25;6.68;;;;;;;0.51;98.04;101009.47;4993242;28;20037;-59
2022/01/21 08:48:47;;;;;;;34.38;7.90;;;;;;;0.55;98.21;101022.25;4985855;28;20022;-59
2022/01/21 08:51:15;;;;;;;30.92;7.28;;;;;;;0.77;99.61;101023.00;4980165;28;20392;-59
2022/01/21 08:53:42;;;;;;;24.02;8.13;;;;;;;1.00;98.71;101018.31;4989418;28;20022;-60
2022/01/21 08:56:12;;;;;;;23.23;6.90;;;;;;;1.15;98.13;101026.69;4975791;28;20043;-59
2022/01/21 08:58:38;;;;;;;27.17;6.10;;;;;;;1.00;97.19;101015.69;4971306;28;20027;-59
2022/01/21 09:01:03;;;;;;;16.13;6.45;;;;;;;1.20;97.33;101017.41;4970933;28;20035;-60
2022/01/21 09:03:32;;;;;;;20.52;6.07;;;;;;;1.16;96.47;101020.44;4986455;28;20042;-60
2022/01/21 09:05:57;;;;;;;20.65;6.00;;;;;;;1.07;95.62;101024.72;4971852;28;20046;-60
2022/01/21 09:08:24;;;;;;;31.33;6.88;;;;;;;1.00;96.94;101027.09;4989085;28;20108;-59
2022/01/21 09:10:53;;;;;;;17.83;7.22;;;;;;;0.76;97.45;101008.97;4985628;28;20046;-60
2022/01/21 09:13:20;;;;;;;22.45;8.02;;;;;;;0.99;97.48;101020.13;4987487;28;20022;-60
2022/01/21 09:15:46;;;;;;;20.35;7.78;;;;;;;0.89;96.71;101019.28;4989161;28;20047;-62
2022/01/21 09:18:17;;;;;;;16.15;6.72;;;;;;;1.12;97.43;101013.75;4987461;28;20044;-61
2022/01/21 09:20:42;;;;;;;20.77;7.95;;;;;;;1.28;96.25;101022.00;4985697;28;20053;-60
2022/01/21 09:23:08;;;;;;;22.73;6.30;;;;;;;1.33;95.85;101017.13;4986233;28;20400;-60
2022/01/21 09:25:33;;;;;;;20.13;6.55;;;;;;;1.50;95.26;101019.06;4984140;28;20516;-60
2022/01/21 09:27:59;;;;;;;18.13;5.78;;;;;;;1.72;94.41;101027.66;4989714;28;20030;-60
2022/01/21 09:30:25;;;;;;;20.38;5.78;;;;;;;1.68;93.65;101031.59;4985003;28;20046;-60
2022/01/21 09:32:50;;;;;;;17.42;6.00;;;;;;;1.49;94.52;101027.97;4988525;28;20035;-60
2022/01/21 09:35:16;;;;;;;19.83;6.72;;;;;;;1.53;94.77;101028.53;4984868;28;20440;-60
2022/01/21 09:37:41;;;;;;;20.48;6.93;;;;;;;1.56;94.86;101019.50;4988572;28;20038;-60
2022/01/21 09:40:10;;;;;;;20.40;6.63;;;;;;;1.73;94.62;101014.31;4984998;28;20476;-60
2022/01/21 09:42:36;;;;;;;18.50;7.32;;;;;;;1.71;94.89;101015.44;4987342;28;20042;-61
2022/01/21 09:45:08;;;;;;;37.50;12.40;;;;;;;1.65;94.80;101034.53;4982821;28;20473;-60
2022/01/21 09:47:43;;;;;;;23.38;8.30;;;;;;;1.52;95.62;101032.13;4980410;28;20485;-60
2022/01/21 09:50:09;;;;;;;20.60;6.40;;;;;;;1.56;95.81;101038.81;4979089;28;20037;-60
2022/01/21 09:52:36;;;;;;;22.83;5.82;;;;;;;1.60;96.19;101034.06;4998938;28;20026;-60
2022/01/21 09:55:02;;;;;;;17.77;7.35;;;;;;;1.54;96.26;101035.47;4984056;28;20038;-60
2022/01/21 09:57:27;;;;;;;16.83;5.05;;;;;;;1.36;96.25;101032.69;4979732;28;20121;-60
2022/01/21 09:59:53;;;;;;;27.42;9.38;;;;;;;1.34;95.54;101034.63;4984000;28;20125;-61
2022/01/21 10:02:19;;;;;;;19.92;8.63;;;;;;;1.29;96.32;101027.13;4985694;28;20101;-60
2022/01/21 10:04:49;;;;;;;35.58;15.30;;;;;;;1.43;96.25;101028.53;4987492;28;20504;-61
2022/01/21 10:07:17;;;;;;;30.38;10.13;;;;;;;1.51;95.45;101028.66;4967326;28;20049;-61
2022/01/21 10:09:44;;;;;;;30.55;8.32;;;;;;;1.39;96.08;101032.41;4967215;28;20751;-60
2022/01/21 10:12:10;;;;;;;30.95;12.02;;;;;;;1.55;95.68;101038.94;4987051;28;20050;-60
2022/01/21 10:14:39;;;;;;;22.75;8.80;;;;;;;1.36;95.75;101035.34;4985522;28;20045;-61
2022/01/21 10:17:05;;;;;;;33.60;11.65;;;;;;;1.41;95.23;101025.19;4986799;28;20038;-60
2022/01/21 10:19:31;;;;;;;20.65;7.43;;;;;;;1.41;94.99;101017.25;4983920;28;20026;-60
2022/01/21 10:22:05;;;;;;;21.95;8.13;;;;;;;1.60;94.43;101029.66;4986742;28;20806;-60
2022/01/21 10:24:31;;;;;;;24.25;7.45;;;;;;;1.71;94.30;101036.59;4985194;28;20346;-60
2022/01/21 10:26:57;;;;;;;15.68;6.97;;;;;;;1.68;93.94;101031.59;4981998;28;20046;-60
2022/01/21 10:29:23;;;;;;;22.33;10.13;;;;;;;1.81;93.63;101021.53;4984740;28;20399;-60
2022/01/21 10:32:00;;;;;;;16.63;7.43;;;;;;;1.98;94.07;101032.38;4982907;28;20149;-60
2022/01/21 10:34:39;;;;;;;16.10;7.05;;;;;;;1.89;93.90;101024.31;4983950;28;20050;-60
2022/01/21 10:37:20;;;;;;;21.98;9.68;;;;;;;1.97;93.39;101034.16;4984563;28;20073;-60
2022/01/21 10:40:06;;;;;;;23.42;7.53;;;;;;;1.92;92.72;101036.41;4985614;28;20467;-60
2022/01/21 10:42:31;;;;;;;26.60;10.15;;;;;;;2.05;93.50;101038.78;4981698;28;20128;-59
2022/01/21 10:44:58;;;;;;;29.10;9.38;;;;;;;1.98;92.93;101029.75;4983661;28;20134;-62
2022/01/21 10:47:32;;;;;;;19.40;8.32;;;;;;;2.07;92.88;101028.84;4988570;28;20092;-59
2022/01/21 10:50:27;;;;;;;29.63;10.02;;;;;;;2.03;91.86;101032.78;4983734;28;20186;-59
2022/01/21 10:52:52;;;;;;;35.50;13.23;;;;;;;2.10;92.53;101037.38;4978848;28;20050;-60
2022/01/21 10:55:32;;;;;;;37.08;15.70;;;;;;;2.15;92.47;101039.59;4982087;28;20045;-61
2022/01/21 10:58:04;;;;;;;36.90;15.30;;;;;;;2.24;92.05;101038.69;4981835;28;20590;-60
2022/01/21 11:00:30;;;;;;;47.47;18.20;;;;;;;2.35;92.45;101046.47;4981259;28;20451;-62
2022/01/21 11:02:55;;;;;;;21.33;7.82;;;;;;;2.58;90.78;101036.34;4984415;28;20050;-60
2022/01/21 11:05:22;;;;;;;26.63;10.77;;;;;;;2.66;91.43;101032.97;4993967;28;20332;-60
2022/01/21 11:08:06;;;;;;;20.17;8.52;;;;;;;2.45;90.91;101035.03;4987502;28;20034;-60
2022/01/21 11:10:31;;;;;;;24.13;8.85;;;;;;;2.55;91.45;101019.94;4983314;28;20038;-60
2022/01/21 11:12:57;;;;;;;21.17;6.88;;;;;;;2.82;89.66;101016.44;4987286;28;20049;-61
2022/01/21 11:15:22;;;;;;;21.52;7.57;;;;;;;2.99;89.28;101014.81;4988058;28;20049;-61
2022/01/21 11:17:58;;;;;;;27.17;7.47;;;;;;;2.91;87.78;101014.72;4989462;28;20019;-61
2022/01/21 11:20:31;;;;;;;26.13;8.05;;;;;;;3.00;87.23;101011.19;4993876;28;20038;-61
2022/01/21 11:23:00;;;;;;;21.15;10.55;;;;;;;3.12;86.95;101006.47;4991134;28;20034;-61
2022/01/21 11:25:44;;;;;;;14.80;6.70;;;;;;;3.18;87.58;101005.91;4967629;28;20061;-61
2022/01/21 11:28:13;;;;;;;18.67;8.07;;;;;;;3.15;88.58;101014.97;4993364;28;20029;-61
2022/01/21 11:30:39;;;;;;;20.73;6.35;;;;;;;3.11;86.53;101010.13;4981591;28;20547;-61
2022/01/21 11:33:04;;;;;;;26.27;7.35;;;;;;;3.17;86.38;101010.38;4992718;28;20030;-60
2022/01/21 11:35:30;;;;;;;20.88;7.13;;;;;;;2.98;87.55;101015.78;4985541;28;20039;-61
2022/01/21 11:37:56;;;;;;;19.20;6.70;;;;;;;2.73;87.31;101012.03;4966340;28;20039;-61
2022/01/21 11:40:22;;;;;;;14.82;6.15;;;;;;;2.88;87.24;101004.44;4968034;28;20121;-61
2022/01/21 11:42:48;;;;;;;11.52;4.70;;;;;;;2.76;87.48;101006.44;5006515;28;20130;-61
2022/01/21 11:45:32;;;;;;;14.40;5.22;;;;;;;2.88;87.45;101004.44;4985014;28;20045;-61
2022/01/21 11:50:44;;;;;;;20.17;5.93;;;;;;;2.93;87.69;101005.66;4979622;28;20043;-61
2022/01/21 11:53:09;;;;;;;23.13;10.68;;;;;;;3.22;87.59;101001.94;4965178;28;20030;-61
2022/01/21 11:55:37;;;;;;;34.60;14.98;;;;;;;3.40;86.28;100999.31;4972180;28;20379;-61
2022/01/21 11:58:14;;;;;;;56.28;21.33;;;;;;;3.77;84.76;100990.31;4988359;28;20041;-61
2022/01/21 12:00:42;;;;;;;19.70;7.32;;;;;;;3.58;83.90;100997.47;4974906;28;20105;-61
2022/01/21 12:03:07;;;;;;;20.02;5.97;;;;;;;3.44;84.09;100990.91;4961630;28;20136;-61
2022/01/21 12:05:36;;;;;;;20.55;7.20;;;;;;;3.63;86.03;101000.50;4969086;28;20973;-61